Time;durP1;ratioP1;P1;durP2;ratioP2;P2;SDS_P1;SDS_P2;PMS_P1;PMS_P2;Temp;Humidity;BMP_temperature;BMP_pressure;BME280_temperature;BME280_humidity;BME280_pressure;Samples;Min_cycle;Max_cycle;Signal;HPM_P1;HPM_P2
2021/08/18 00:04:16;;;;;;;3.5;2.1;;;;;;;12.06;100;98497.59;;;;
2021/08/18 00:14:15;;;;;;;12.5;3;;;;;;;12.09;100;98488.05;;;;
2021/08/18 00:24:14;;;;;;;4.4;2;;;;;;;12.18;100;98507.76;;;;
2021/08/18 00:34:13;;;;;;;4.8;2.1;;;;;;;11.97;100;98498.71;;;;
2021/08/18 00:44:12;;;;;;;4.5;2.5;;;;;;;12.02;100;98488.53;;;;
2021/08/18 00:54:12;;;;;;;4.8;2.1;;;;;;;12.08;100;98491.85;;;;
2021/08/18 01:04:11;;;;;;;4;1.8;;;;;;;12.18;100;98494.25;;;;
2021/08/18 01:14:10;;;;;;;5.7;2.8;;;;;;;12.15;100;98494.09;;;;
2021/08/18 01:24:09;;;;;;;5.9;2.3;;;;;;;12.2;100;98497.41;;;;
2021/08/18 01:34:09;;;;;;;5.3;2.6;;;;;;;12.21;100;98482.8;;;;
2021/08/18 01:44:08;;;;;;;3.5;2.4;;;;;;;12.23;100;98487.87;;;;
2021/08/18 01:54:07;;;;;;;6.3;2.2;;;;;;;12.22;100;98472.79;;;;
2021/08/18 02:14:05;;;;;;;10.4;3.1;;;;;;;12.11;100;98475.03;;;;
2021/08/18 02:24:06;;;;;;;5.4;2.5;;;;;;;12.06;100;98469.78;;;;
2021/08/18 02:34:06;;;;;;;3;1.5;;;;;;;12.24;100;98462.45;;;;
2021/08/18 02:44:03;;;;;;;3.4;1.7;;;;;;;12.1;100;98476.94;;;;
2021/08/18 02:54:02;;;;;;;5.2;2.9;;;;;;;12.05;100;98485.19;;;;
2021/08/18 03:04:02;;;;;;;6.2;2.7;;;;;;;12.12;100;98509.02;;;;
2021/08/18 03:14:01;;;;;;;4.8;2.4;;;;;;;12.19;100;98513.94;;;;
2021/08/18 03:24:00;;;;;;;4.8;2.1;;;;;;;12.1;100;98503.95;;;;
2021/08/18 03:33:59;;;;;;;3.1;1.6;;;;;;;12.1;100;98490.44;;;;
2021/08/18 03:43:58;;;;;;;4.5;2.1;;;;;;;12.05;100;98490.59;;;;
2021/08/18 03:53:58;;;;;;;4.3;2.1;;;;;;;12.01;100;98489.63;;;;
2021/08/18 04:03:57;;;;;;;4.9;2.6;;;;;;;12.11;100;98500.11;;;;
2021/08/18 04:13:56;;;;;;;5.8;3.2;;;;;;;12.21;100;98500.91;;;;
2021/08/18 04:23:55;;;;;;;6.4;2.3;;;;;;;12.3;100;98488.17;;;;
2021/08/18 04:33:54;;;;;;;3.8;1.9;;;;;;;12.55;100;98487.33;;;;
2021/08/18 04:43:54;;;;;;;11.8;3;;;;;;;12.78;100;98495.99;;;;
2021/08/18 04:53:53;;;;;;;9.5;3.9;;;;;;;13.01;100;98497.36;;;;
2021/08/18 05:03:52;;;;;;;4.7;2.7;;;;;;;13.35;100;98510.73;;;;
2021/08/18 05:13:52;;;;;;;4.5;2.2;;;;;;;13.82;100;98524.92;;;;
2021/08/18 05:23:51;;;;;;;3;1.6;;;;;;;14.3;100;98529.78;;;;
2021/08/18 05:33:51;;;;;;;6;2.1;;;;;;;14.75;100;98531.79;;;;
2021/08/18 05:43:51;;;;;;;6.1;3.1;;;;;;;14.62;100;98530.95;;;;
2021/08/18 05:53:51;;;;;;;5.4;3;;;;;;;14.67;100;98538.88;;;;
2021/08/18 06:03:51;;;;;;;5.3;2.6;;;;;;;14.82;100;98540.17;;;;
2021/08/18 06:13:49;;;;;;;5.6;2.5;;;;;;;14.86;100;98549.2;;;;
2021/08/18 06:23:50;;;;;;;5.2;2;;;;;;;15.25;100;98554.02;;;;
2021/08/18 06:33:49;;;;;;;6.5;2.9;;;;;;;15.75;100;98556.42;;;;
2021/08/18 06:43:48;;;;;;;13.1;4.3;;;;;;;16.22;100;98553.13;;;;
2021/08/18 06:53:48;;;;;;;5.3;3.3;;;;;;;16.65;100;98545.05;;;;
2021/08/18 07:03:48;;;;;;;9.2;4.8;;;;;;;16.94;100;98544.64;;;;
2021/08/18 07:13:48;;;;;;;8.5;3.8;;;;;;;16.85;100;98540.52;;;;
2021/08/18 07:23:48;;;;;;;12.5;5.2;;;;;;;16.8;100;98549.72;;;;
2021/08/18 07:33:47;;;;;;;8.7;4.6;;;;;;;17.02;100;98557.31;;;;
2021/08/18 07:43:47;;;;;;;4.5;3.6;;;;;;;17.42;100;98553.63;;;;
2021/08/18 07:53:47;;;;;;;9.8;4.5;;;;;;;17.75;100;98548.58;;;;
2021/08/18 08:03:47;;;;;;;7.5;4.2;;;;;;;17.63;100;98547.92;;;;
2021/08/18 08:13:47;;;;;;;7.9;5.1;;;;;;;17.58;100;98544.31;;;;
2021/08/18 08:23:47;;;;;;;7.7;4.6;;;;;;;17.31;100;98536.23;;;;
2021/08/18 08:33:47;;;;;;;8.5;6;;;;;;;17.11;100;98525.23;;;;
2021/08/18 08:43:47;;;;;;;8.4;4.9;;;;;;;16.94;100;98528.3;;;;
2021/08/18 08:53:47;;;;;;;7.5;5.2;;;;;;;17.75;100;98525.98;;;;
2021/08/18 09:03:47;;;;;;;9.5;5.8;;;;;;;18.21;100;98507.88;;;;
2021/08/18 09:13:47;;;;;;;7.6;6.2;;;;;;;18.68;100;98504.9;;;;
2021/08/18 09:23:47;;;;;;;8.7;5.6;;;;;;;18.98;100;98505.84;;;;
2021/08/18 09:33:47;;;;;;;9.1;5.8;;;;;;;18.75;100;98505.82;;;;
2021/08/18 09:43:47;;;;;;;9.9;6.8;;;;;;;18.66;100;98508;;;;
2021/08/18 09:53:47;;;;;;;8.5;5.4;;;;;;;18.92;100;98507.28;;;;
2021/08/18 10:03:47;;;;;;;9.1;7.1;;;;;;;18.31;100;98510.02;;;;
2021/08/18 10:13:47;;;;;;;11.1;6.9;;;;;;;18.34;100;98501.11;;;;
2021/08/18 10:23:50;;;;;;;9.3;6.8;;;;;;;17.86;100;98495.09;;;;
2021/08/18 10:33:56;;;;;;;10.2;6.6;;;;;;;18.08;100;98491.64;;;;
2021/08/18 10:43:59;;;;;;;10.1;6.5;;;;;;;18.27;100;98479.15;;;;
2021/08/18 10:53:48;;;;;;;12.1;5.1;;;;;;;18.77;100;98480.89;;;;
2021/08/18 11:03:47;;;;;;;9.1;5.6;;;;;;;19.41;100;98477.27;;;;
2021/08/18 11:13:47;;;;;;;10;7.3;;;;;;;19.93;99.25098;98484.63;;;;
2021/08/18 11:23:47;;;;;;;9.4;5.6;;;;;;;19.52;99.73242;98464.55;;;;
2021/08/18 11:33:47;;;;;;;9.8;5.4;;;;;;;19.53;91.71973;98466.13;;;;
2021/08/18 11:43:47;;;;;;;8;4.7;;;;;;;20.09;98.2793;98466.09;;;;
2021/08/18 11:53:47;;;;;;;6;3.9;;;;;;;20.65;94.88867;98445.98;;;;
2021/08/18 12:03:47;;;;;;;8.4;5.2;;;;;;;20.65;84.68848;98444.05;;;;
2021/08/18 12:13:48;;;;;;;8.5;5.7;;;;;;;20.79;83.55176;98443.38;;;;
2021/08/18 12:23:48;;;;;;;7.1;4;;;;;;;20.83;80.75586;98439.48;;;;
2021/08/18 12:33:48;;;;;;;7.3;4.3;;;;;;;20.89;79.10547;98438;;;;
2021/08/18 12:43:49;;;;;;;8.3;3.6;;;;;;;21.02;72.16895;98438.48;;;;
2021/08/18 12:53:49;;;;;;;4.7;2.8;;;;;;;20.94;71.11426;98425.88;;;;
2021/08/18 13:03:50;;;;;;;5.8;3.1;;;;;;;21.21;76.7334;98418.3;;;;
2021/08/18 13:13:49;;;;;;;6.8;2.4;;;;;;;20.96;75.3623;98409.86;;;;
2021/08/18 13:23:50;;;;;;;5.3;3.1;;;;;;;21.35;66.63574;98413.66;;;;
2021/08/18 13:33:50;;;;;;;8.9;4.3;;;;;;;21.41;71.6416;98416.85;;;;
2021/08/18 13:43:50;;;;;;;5.5;3.2;;;;;;;21.39;70.07422;98400.77;;;;
2021/08/18 13:53:51;;;;;;;10.7;3.5;;;;;;;21.14;70.24219;98404.55;;;;
2021/08/18 14:03:51;;;;;;;6.1;3.1;;;;;;;21.36;72.51465;98401.54;;;;
2021/08/18 14:13:51;;;;;;;4.2;2;;;;;;;21.29;76.89941;98406.19;;;;
2021/08/18 14:23:51;;;;;;;6;3;;;;;;;21.09;73.06152;98403.7;;;;
2021/08/18 14:33:52;;;;;;;6.4;3.3;;;;;;;21.37;73.63867;98408.61;;;;
2021/08/18 14:43:52;;;;;;;7.4;3.9;;;;;;;21.58;76.20801;98405.98;;;;
2021/08/18 14:53:52;;;;;;;5.5;2.6;;;;;;;21.77;68.31152;98398.59;;;;
2021/08/18 15:03:52;;;;;;;7.1;2.8;;;;;;;21.63;67.4209;98410.3;;;;
2021/08/18 15:13:53;;;;;;;6;2.9;;;;;;;21.77;68.85742;98396.64;;;;
2021/08/18 15:23:53;;;;;;;9.4;3.9;;;;;;;23.25;63.76074;98409.06;;;;
2021/08/18 15:33:53;;;;;;;7;2.9;;;;;;;24.88;55.44043;98404.41;;;;
2021/08/18 15:43:54;;;;;;;6.7;3.2;;;;;;;25.3;51.97949;98405.98;;;;
2021/08/18 15:53:55;;;;;;;5.6;3.2;;;;;;;25.89;49.64551;98400.98;;;;
2021/08/18 16:03:56;;;;;;;5.7;3.4;;;;;;;25.7;49.55371;98392.55;;;;
2021/08/18 16:13:57;;;;;;;7.7;3.2;;;;;;;25.89;51.6123;98389.94;;;;
2021/08/18 16:23:58;;;;;;;7.9;3.3;;;;;;;24.83;54.1084;98384.73;;;;
2021/08/18 16:34:03;;;;;;;5.6;2.8;;;;;;;22.21;63.37988;98390.16;;;;
2021/08/18 16:44:03;;;;;;;6.5;3;;;;;;;20.66;68.4209;98379.08;;;;
2021/08/18 16:54:03;;;;;;;9.1;4.5;;;;;;;19.57;76.7998;98379.48;;;;
2021/08/18 17:04:03;;;;;;;7.4;3.5;;;;;;;19.04;81.10059;98384.98;;;;
2021/08/18 17:14:03;;;;;;;8.1;4.6;;;;;;;18.4;84.21875;98391.3;;;;
2021/08/18 17:24:03;;;;;;;6.8;3.5;;;;;;;17.98;88.30371;98387.79;;;;
2021/08/18 17:34:03;;;;;;;9.3;4.7;;;;;;;17.4;91.80762;98389.7;;;;
2021/08/18 17:44:03;;;;;;;13.4;7.4;;;;;;;16.93;96.21094;98398.8;;;;
2021/08/18 17:54:03;;;;;;;5.1;3.3;;;;;;;16.49;99.78516;98408.15;;;;
2021/08/18 18:04:03;;;;;;;8.1;3.4;;;;;;;16.1;100;98409.88;;;;
2021/08/18 18:13:59;;;;;;;6.1;2.9;;;;;;;15.91;100;98413.23;;;;
2021/08/18 18:23:58;;;;;;;8.3;3.1;;;;;;;15.64;100;98416.73;;;;
2021/08/18 18:33:58;;;;;;;5.3;3.6;;;;;;;15.27;100;98410.55;;;;
2021/08/18 18:43:57;;;;;;;7;3.5;;;;;;;15.26;100;98421.77;;;;
2021/08/18 18:53:57;;;;;;;4.8;3.4;;;;;;;15.1;100;98413.52;;;;
2021/08/18 19:03:56;;;;;;;9.9;4.7;;;;;;;14.84;100;98415.8;;;;
2021/08/18 19:13:56;;;;;;;9.1;4;;;;;;;14.62;100;98419.73;;;;
2021/08/18 19:23:55;;;;;;;5.1;3.2;;;;;;;14.48;100;98416.55;;;;
2021/08/18 19:33:54;;;;;;;6.5;4;;;;;;;14.36;100;98421.97;;;;
2021/08/18 19:43:54;;;;;;;8.1;4.7;;;;;;;14.25;100;98412.64;;;;
2021/08/18 19:53:53;;;;;;;6.2;3.8;;;;;;;14.17;100;98422.44;;;;
2021/08/18 20:03:53;;;;;;;6.4;3;;;;;;;14.09;100;98426.05;;;;
2021/08/18 20:13:52;;;;;;;7;3.1;;;;;;;14.06;100;98427.48;;;;
2021/08/18 20:23:51;;;;;;;7.7;4.6;;;;;;;13.92;100;98409.94;;;;
2021/08/18 20:33:51;;;;;;;6.3;4.2;;;;;;;13.87;100;98408.24;;;;
2021/08/18 20:43:50;;;;;;;6.4;3.4;;;;;;;13.9;100;98412.2;;;;
2021/08/18 20:53:49;;;;;;;8;3.4;;;;;;;13.9;100;98420.32;;;;
2021/08/18 21:03:49;;;;;;;7.8;4.7;;;;;;;13.85;100;98415.89;;;;
2021/08/18 21:13:49;;;;;;;5.4;3.8;;;;;;;13.87;100;98402.83;;;;
2021/08/18 21:23:47;;;;;;;6.1;3.4;;;;;;;13.84;100;98408.91;;;;
2021/08/18 21:33:47;;;;;;;4.8;2.4;;;;;;;13.84;100;98403.49;;;;
2021/08/18 21:43:46;;;;;;;7.3;4;;;;;;;13.74;100;98398.49;;;;
2021/08/18 21:53:45;;;;;;;5.2;3.1;;;;;;;13.74;100;98405.82;;;;
2021/08/18 22:03:45;;;;;;;7.7;3.4;;;;;;;13.6;100;98397.98;;;;
2021/08/18 22:13:44;;;;;;;4.9;2.6;;;;;;;13.51;100;98400.73;;;;
2021/08/18 22:23:44;;;;;;;4.7;3.3;;;;;;;13.49;100;98405.7;;;;
2021/08/18 22:33:43;;;;;;;5.8;2.6;;;;;;;13.5;100;98403.8;;;;
2021/08/18 22:43:42;;;;;;;4.8;2.9;;;;;;;13.51;100;98394.53;;;;
2021/08/18 22:53:41;;;;;;;4.2;2.6;;;;;;;13.51;100;98383.7;;;;
2021/08/18 23:03:41;;;;;;;6.3;2.6;;;;;;;13.46;100;98390.13;;;;
2021/08/18 23:13:40;;;;;;;5.3;3.1;;;;;;;13.37;100;98394.8;;;;
2021/08/18 23:23:39;;;;;;;6.6;3;;;;;;;13.35;100;98394.34;;;;
2021/08/18 23:33:38;;;;;;;6;2.9;;;;;;;13.25;100;98392.03;;;;
2021/08/18 23:43:38;;;;;;;3.8;2.4;;;;;;;13.24;100;98395.05;;;;
2021/08/18 23:53:37;;;;;;;3.8;2.4;;;;;;;13.26;100;98399.01;;;;
